createdAt,value
2019-03-30T00:04:42.109Z,4.58
2019-03-30T00:07:10.521Z,4.64
2019-03-30T00:09:38.966Z,4.59
2019-03-30T00:12:07.431Z,4.52
2019-03-30T00:14:55.042Z,4.45
2019-03-30T00:17:23.511Z,4.45
2019-03-30T00:19:51.938Z,4.53
2019-03-30T00:22:20.385Z,4.37
2019-03-30T00:24:48.900Z,4.39
2019-03-30T00:27:36.650Z,4.41
2019-03-30T00:30:45.027Z,4.40
2019-03-30T00:33:13.456Z,4.37
2019-03-30T00:35:41.887Z,4.18
2019-03-30T00:38:10.406Z,4.19
2019-03-30T00:40:38.850Z,4.06
2019-03-30T00:43:07.312Z,4.02
2019-03-30T00:45:35.773Z,4.01
2019-03-30T00:48:23.521Z,3.96
2019-03-30T00:50:51.989Z,3.95
2019-03-30T00:53:20.420Z,3.92
2019-03-30T00:56:08.198Z,3.81
2019-03-30T00:58:36.623Z,3.91
2019-03-30T01:03:52.615Z,3.89
2019-03-30T01:06:21.035Z,4.01
2019-03-30T01:08:49.540Z,3.95
2019-03-30T01:14:11.713Z,3.94
2019-03-30T01:19:13.908Z,4.01
2019-03-30T01:21:42.326Z,4.03
2019-03-30T01:24:10.750Z,4.00
2019-03-30T01:31:47.676Z,3.84
2019-03-30T01:34:16.100Z,3.76
2019-03-30T01:36:44.560Z,3.72
2019-03-30T01:41:47.379Z,3.41
2019-03-30T01:44:15.842Z,3.37
2019-03-30T01:46:44.300Z,3.21
2019-03-30T01:49:32.044Z,3.18
2019-03-30T01:54:34.849Z,3.31
2019-03-30T01:59:37.009Z,3.14
2019-03-30T02:02:05.617Z,2.95
2019-03-30T02:04:53.370Z,2.99
2019-03-30T02:07:21.811Z,2.90
2019-03-30T02:09:50.256Z,2.96
2019-03-30T02:12:18.681Z,2.92
2019-03-30T02:15:06.329Z,3.07
2019-03-30T02:17:34.748Z,3.10
2019-03-30T02:20:43.135Z,3.14
2019-03-30T02:23:11.841Z,3.06
2019-03-30T02:25:40.432Z,3.00
2019-03-30T02:28:09.537Z,3.01
2019-03-30T02:30:38.229Z,3.02
2019-03-30T02:33:06.720Z,2.96
2019-03-30T02:35:35.325Z,2.91
2019-03-30T02:38:03.814Z,2.73
2019-03-30T02:40:32.244Z,2.59
2019-03-30T02:43:01.125Z,2.54
2019-03-30T02:45:29.621Z,2.55
2019-03-30T02:47:58.244Z,2.46
2019-03-30T02:50:26.678Z,2.45
2019-03-30T02:52:55.101Z,2.70
2019-03-30T02:55:23.530Z,2.68
2019-03-30T02:57:52.024Z,2.64
2019-03-30T03:00:20.536Z,2.75
2019-03-30T03:02:49.130Z,2.72
2019-03-30T03:05:18.021Z,2.58
2019-03-30T03:07:46.512Z,2.72
2019-03-30T03:10:16.744Z,2.79
2019-03-30T03:12:45.192Z,2.71
2019-03-30T03:15:13.855Z,2.66
2019-03-30T03:17:42.296Z,2.59
2019-03-30T03:20:10.980Z,2.57
2019-03-30T03:22:39.399Z,2.38
2019-03-30T03:25:08.068Z,2.36
2019-03-30T03:27:36.512Z,2.33
2019-03-30T03:30:07.092Z,2.37
2019-03-30T03:32:35.506Z,2.24
2019-03-30T03:35:04.534Z,2.30
2019-03-30T03:37:44.551Z,2.30
2019-03-30T03:40:03.307Z,2.17
2019-03-30T03:42:32.113Z,2.35
2019-03-30T03:45:00.744Z,2.39
2019-03-30T03:47:29.131Z,2.50
2019-03-30T03:49:57.581Z,2.51
2019-03-30T03:52:25.999Z,2.22
2019-03-30T03:54:55.470Z,2.40
2019-03-30T03:57:26.301Z,2.47
2019-03-30T03:59:57.407Z,2.34
2019-03-30T04:02:27.812Z,2.11
2019-03-30T04:04:58.040Z,2.28
2019-03-30T04:07:29.518Z,2.28
2019-03-30T04:10:00.690Z,2.08
2019-03-30T04:12:31.778Z,2.12
2019-03-30T04:15:02.805Z,2.12
2019-03-30T04:17:31.884Z,2.12
2019-03-30T04:20:00.655Z,2.41
2019-03-30T04:22:29.211Z,2.38
2019-03-30T04:24:57.812Z,2.38
2019-03-30T04:27:26.307Z,2.55
2019-03-30T04:29:54.719Z,2.43
2019-03-30T04:32:23.140Z,2.54
2019-03-30T04:34:51.668Z,2.56
2019-03-30T04:37:20.099Z,2.50
2019-03-30T04:39:48.521Z,2.17
2019-03-30T04:42:16.994Z,2.44
2019-03-30T04:44:45.424Z,2.16
2019-03-30T04:47:13.849Z,2.22
2019-03-30T04:49:42.414Z,2.12
2019-03-30T04:52:10.842Z,1.95
2019-03-30T04:54:39.332Z,1.79
2019-03-30T04:57:07.779Z,1.89
2019-03-30T04:59:36.223Z,1.96
2019-03-30T05:02:05.015Z,1.93
2019-03-30T05:04:33.463Z,2.03
2019-03-30T05:07:01.893Z,1.98
2019-03-30T05:09:30.338Z,2.02
2019-03-30T05:11:58.854Z,2.03
2019-03-30T05:14:27.298Z,2.09
2019-03-30T05:16:55.709Z,1.95
2019-03-30T05:19:24.164Z,1.88
2019-03-30T05:21:52.589Z,2.02
2019-03-30T05:24:21.021Z,1.97
2019-03-30T05:26:49.809Z,1.99
2019-03-30T05:29:18.238Z,2.08
2019-03-30T05:31:46.656Z,1.99
2019-03-30T05:34:15.140Z,2.05
2019-03-30T05:36:43.765Z,1.99
2019-03-30T05:39:12.262Z,2.01
2019-03-30T05:41:40.749Z,2.15
2019-03-30T05:44:09.163Z,2.05
2019-03-30T05:46:37.582Z,2.11
2019-03-30T05:49:06.051Z,2.19
2019-03-30T05:51:34.482Z,2.23
2019-03-30T05:54:02.909Z,2.22
2019-03-30T05:56:31.381Z,2.36
2019-03-30T05:58:59.805Z,2.44
2019-03-30T06:01:28.290Z,2.59
2019-03-30T06:03:56.751Z,2.64
2019-03-30T06:06:25.160Z,2.81
2019-03-30T06:08:53.747Z,2.93
2019-03-30T06:11:22.212Z,2.88
2019-03-30T06:13:50.736Z,3.00
2019-03-30T06:16:19.337Z,3.25
2019-03-30T06:18:47.887Z,3.21
2019-03-30T06:21:16.317Z,3.36
2019-03-30T06:23:44.744Z,3.30
2019-03-30T06:26:13.876Z,3.54
2019-03-30T06:28:42.287Z,3.68
2019-03-30T06:31:10.789Z,3.77
2019-03-30T06:33:39.250Z,3.94
2019-03-30T06:36:07.684Z,4.12
2019-03-30T06:38:36.113Z,4.03
2019-03-30T06:41:04.917Z,4.20
2019-03-30T06:43:33.346Z,4.28
2019-03-30T06:46:01.840Z,4.40
2019-03-30T06:48:30.426Z,4.44
2019-03-30T06:50:58.853Z,4.54
2019-03-30T06:53:27.286Z,4.58
2019-03-30T06:55:55.744Z,4.80
2019-03-30T06:58:24.171Z,4.90
2019-03-30T07:00:53.112Z,5.01
2019-03-30T07:03:21.928Z,5.19
2019-03-30T07:05:51.326Z,5.29
2019-03-30T07:08:19.758Z,5.25
2019-03-30T07:10:49.051Z,5.52
2019-03-30T07:13:17.825Z,5.57
2019-03-30T07:15:48.097Z,5.85
2019-03-30T07:18:18.299Z,6.06
2019-03-30T07:20:46.837Z,6.09
2019-03-30T07:23:15.289Z,5.85
2019-03-30T07:25:43.816Z,6.19
2019-03-30T07:28:12.316Z,6.18
2019-03-30T07:30:40.755Z,6.23
2019-03-30T07:33:09.224Z,6.61
2019-03-30T07:35:37.649Z,6.61
2019-03-30T07:38:06.081Z,6.91
2019-03-30T07:40:35.029Z,6.63
2019-03-30T07:43:03.622Z,6.94
2019-03-30T07:45:32.074Z,6.78
2019-03-30T07:48:00.531Z,6.93
2019-03-30T07:50:28.980Z,7.58
2019-03-30T07:52:57.451Z,7.51
2019-03-30T07:55:25.952Z,7.47
2019-03-30T07:57:54.394Z,7.52
2019-03-30T08:00:22.818Z,8.05
2019-03-30T08:02:51.488Z,7.83
2019-03-30T08:05:19.992Z,7.86
2019-03-30T08:07:48.497Z,7.99
2019-03-30T08:10:17.488Z,7.98
2019-03-30T08:12:46.079Z,8.30
2019-03-30T08:15:14.961Z,8.83
2019-03-30T08:17:43.884Z,8.78
2019-03-30T08:20:12.755Z,8.74
2019-03-30T08:22:41.248Z,8.80
2019-03-30T08:25:10.037Z,8.94
2019-03-30T08:27:38.487Z,9.12
2019-03-30T08:30:07.854Z,9.18
2019-03-30T08:32:36.314Z,9.21
2019-03-30T08:35:06.387Z,9.42
2019-03-30T08:37:34.820Z,9.64
2019-03-30T08:40:03.619Z,9.58
2019-03-30T08:42:32.114Z,9.66
2019-03-30T08:45:00.657Z,9.91
2019-03-30T08:47:29.215Z,10.14
2019-03-30T08:49:57.642Z,10.36
2019-03-30T08:52:26.114Z,10.87
2019-03-30T08:54:54.570Z,10.71
2019-03-30T08:57:23.002Z,11.19
2019-03-30T08:59:51.449Z,11.06
2019-03-30T09:02:20.092Z,11.47
2019-03-30T09:04:48.527Z,11.22
2019-03-30T09:07:17.125Z,11.17
2019-03-30T09:09:45.594Z,11.28
2019-03-30T09:12:14.035Z,11.17
2019-03-30T09:14:42.470Z,11.57
2019-03-30T09:17:10.942Z,11.62
2019-03-30T09:19:39.487Z,11.89
2019-03-30T09:22:07.917Z,11.98
2019-03-30T09:24:36.379Z,12.14
2019-03-30T09:27:04.813Z,12.42
2019-03-30T09:29:33.260Z,12.60
2019-03-30T09:32:13.788Z,12.56
2019-03-30T09:34:32.337Z,12.60
2019-03-30T09:37:00.778Z,12.61
2019-03-30T09:39:29.810Z,12.95
2019-03-30T09:41:58.340Z,13.30
2019-03-30T09:44:26.774Z,13.25
2019-03-30T09:46:55.252Z,13.56
2019-03-30T09:49:23.690Z,13.71
2019-03-30T09:51:52.128Z,14.00
2019-03-30T09:54:23.799Z,13.91
2019-03-30T09:56:50.955Z,14.28
2019-03-30T09:59:19.390Z,14.46
2019-03-30T10:01:47.854Z,14.60
2019-03-30T10:04:16.293Z,14.64
2019-03-30T10:06:44.766Z,14.79
2019-03-30T10:09:13.383Z,15.21
2019-03-30T10:11:41.819Z,15.19
2019-03-30T10:14:10.296Z,15.25
2019-03-30T10:16:38.767Z,15.15
2019-03-30T10:19:07.205Z,15.28
2019-03-30T10:21:35.641Z,15.62
2019-03-30T10:24:04.242Z,15.66
2019-03-30T10:26:32.713Z,15.55
2019-03-30T10:29:01.166Z,15.73
2019-03-30T10:31:29.628Z,15.64
2019-03-30T10:33:58.063Z,15.93
2019-03-30T10:36:26.544Z,16.02
2019-03-30T10:38:55.012Z,16.07
2019-03-30T10:41:23.518Z,16.21
2019-03-30T10:43:51.945Z,16.51
2019-03-30T10:46:20.493Z,16.67
2019-03-30T10:48:48.926Z,16.82
2019-03-30T10:51:17.372Z,16.59
2019-03-30T10:53:45.847Z,16.51
2019-03-30T10:56:14.283Z,16.53
2019-03-30T10:58:42.718Z,16.90
2019-03-30T11:01:11.221Z,17.43
2019-03-30T11:03:39.634Z,17.46
2019-03-30T11:06:08.075Z,17.37
2019-03-30T11:08:36.554Z,17.68
2019-03-30T11:11:05.138Z,17.90
2019-03-30T11:13:33.578Z,17.58
2019-03-30T11:16:02.033Z,17.61
2019-03-30T11:18:30.475Z,17.79
2019-03-30T11:20:58.982Z,17.99
2019-03-30T11:23:27.452Z,17.71
2019-03-30T11:25:55.959Z,17.79
2019-03-30T11:28:24.395Z,17.80
2019-03-30T11:30:52.871Z,18.02
2019-03-30T11:33:21.309Z,18.10
2019-03-30T11:35:49.745Z,18.32
2019-03-30T11:38:18.209Z,18.59
2019-03-30T11:40:46.785Z,18.64
2019-03-30T11:43:15.218Z,18.75
2019-03-30T11:45:43.689Z,18.93
2019-03-30T11:48:12.125Z,18.71
2019-03-30T11:50:40.562Z,19.04
2019-03-30T11:53:09.054Z,18.64
2019-03-30T11:55:37.490Z,18.33
2019-03-30T11:58:05.922Z,18.76
2019-03-30T12:00:34.431Z,19.20
2019-03-30T12:03:02.844Z,19.30
2019-03-30T12:05:31.276Z,19.22
2019-03-30T12:07:59.747Z,19.39
2019-03-30T12:10:28.180Z,19.60
2019-03-30T12:12:56.689Z,19.45
2019-03-30T12:15:25.173Z,18.81
2019-03-30T12:17:53.611Z,19.07
2019-03-30T12:20:22.051Z,19.27
2019-03-30T12:22:50.512Z,19.59
2019-03-30T12:25:18.970Z,19.62
2019-03-30T12:27:47.394Z,19.93
2019-03-30T12:30:16.225Z,19.79
2019-03-30T12:32:44.651Z,20.07
2019-03-30T12:35:13.220Z,20.29
2019-03-30T12:37:41.685Z,20.35
2019-03-30T12:40:11.558Z,20.62
2019-03-30T12:42:40.054Z,20.71
2019-03-30T12:45:08.862Z,20.52
2019-03-30T12:47:37.363Z,20.76
2019-03-30T12:50:07.129Z,20.80
2019-03-30T12:52:35.644Z,20.98
2019-03-30T12:55:04.452Z,20.91
2019-03-30T12:57:32.875Z,20.83
2019-03-30T13:00:01.739Z,21.09
2019-03-30T13:02:30.333Z,20.83
2019-03-30T13:04:58.775Z,20.47
2019-03-30T13:07:27.224Z,20.81
2019-03-30T13:09:55.722Z,21.02
2019-03-30T13:12:24.224Z,20.91
2019-03-30T13:14:52.684Z,20.46
2019-03-30T13:17:21.111Z,20.35
2019-03-30T13:19:49.548Z,20.35
2019-03-30T13:22:17.996Z,20.21
2019-03-30T13:24:46.424Z,20.33
2019-03-30T13:27:14.928Z,20.37
2019-03-30T13:29:43.379Z,20.28
2019-03-30T13:32:11.803Z,20.27
2019-03-30T13:34:40.248Z,20.57
2019-03-30T13:37:14.245Z,20.50
2019-03-30T13:39:42.667Z,20.46
2019-03-30T13:42:11.132Z,20.40
2019-03-30T13:44:40.501Z,20.36
2019-03-30T13:47:08.928Z,20.29
2019-03-30T13:49:37.422Z,20.32
2019-03-30T13:52:05.894Z,20.17
2019-03-30T13:54:34.389Z,20.46
2019-03-30T13:57:02.848Z,20.46
2019-03-30T13:59:31.377Z,20.69
2019-03-30T14:01:59.803Z,20.83
2019-03-30T14:04:28.309Z,21.07
2019-03-30T14:06:56.783Z,20.82
2019-03-30T14:09:25.209Z,21.00
2019-03-30T14:11:53.635Z,21.03
2019-03-30T14:14:22.114Z,20.88
2019-03-30T14:16:50.764Z,20.70
2019-03-30T14:19:19.161Z,20.87
2019-03-30T14:21:47.681Z,21.02
2019-03-30T14:24:16.127Z,21.04
2019-03-30T14:27:03.817Z,20.98
2019-03-30T14:29:32.239Z,20.98
2019-03-30T14:32:00.670Z,21.06
2019-03-30T14:34:29.133Z,21.15
2019-03-30T14:36:57.619Z,21.14
2019-03-30T14:39:26.052Z,21.16
2019-03-30T14:41:54.511Z,21.07
2019-03-30T14:44:23.012Z,21.21
2019-03-30T14:46:51.468Z,21.21
2019-03-30T14:49:19.951Z,21.25
2019-03-30T14:51:48.382Z,21.46
2019-03-30T14:54:16.810Z,21.14
2019-03-30T14:56:46.366Z,21.18
2019-03-30T14:59:15.600Z,21.14
2019-03-30T15:01:44.114Z,21.28
2019-03-30T15:04:12.667Z,21.23
2019-03-30T15:06:41.088Z,21.18
2019-03-30T15:09:28.877Z,21.18
2019-03-30T15:11:57.307Z,21.36
2019-03-30T15:14:25.741Z,21.52
2019-03-30T15:16:54.246Z,21.21
2019-03-30T15:19:22.672Z,21.07
2019-03-30T15:21:51.105Z,21.38
2019-03-30T15:27:13.839Z,21.16
2019-03-30T15:29:45.401Z,21.24
2019-03-30T15:35:19.309Z,20.76
2019-03-30T15:37:47.738Z,20.57
2019-03-30T15:40:56.118Z,20.29
2019-03-30T15:43:37.464Z,20.18
2019-03-30T15:46:14.406Z,20.12
2019-03-30T15:48:44.128Z,20.27
2019-03-30T15:56:53.092Z,20.11
2019-03-30T15:59:21.536Z,20.12
2019-03-30T16:01:49.964Z,19.97
2019-03-30T16:04:18.461Z,19.95
2019-03-30T16:07:07.049Z,19.96
2019-03-30T16:10:16.327Z,19.89
2019-03-30T16:15:19.193Z,19.76
2019-03-30T16:17:47.655Z,19.75
2019-03-30T16:20:16.084Z,19.78
2019-03-30T16:23:24.490Z,19.92
2019-03-30T16:25:52.922Z,19.83
2019-03-30T16:28:40.569Z,19.75
2019-03-30T16:31:09.003Z,19.87
2019-03-30T16:33:56.576Z,19.97
2019-03-30T16:36:25.009Z,20.11
2019-03-30T16:38:53.456Z,20.18
2019-03-30T16:41:21.916Z,19.74
2019-03-30T16:44:09.741Z,19.75
2019-03-30T16:46:57.713Z,19.75
2019-03-30T16:49:27.583Z,19.65
2019-03-30T16:52:15.243Z,19.42
2019-03-30T16:54:43.670Z,19.56
2019-03-30T16:57:12.100Z,19.37
2019-03-30T17:02:15.044Z,19.48
2019-03-30T17:04:43.496Z,19.31
2019-03-30T17:07:11.923Z,19.21
2019-03-30T17:09:40.354Z,19.15
2019-03-30T17:14:43.242Z,19.03
2019-03-30T17:17:11.687Z,19.06
2019-03-30T17:19:40.148Z,18.92
2019-03-30T17:22:08.579Z,18.85
2019-03-30T17:24:37.045Z,18.73
2019-03-30T17:27:05.492Z,18.66
2019-03-30T17:29:33.899Z,18.53
2019-03-30T17:32:02.368Z,18.48
2019-03-30T17:34:30.801Z,18.10
2019-03-30T17:36:59.233Z,17.97
2019-03-30T17:39:27.683Z,17.76
2019-03-30T17:41:56.111Z,17.50
2019-03-30T17:44:24.551Z,17.35
2019-03-30T17:47:12.268Z,17.05
2019-03-30T17:49:40.705Z,16.75
2019-03-30T17:52:09.137Z,16.30
2019-03-30T17:54:39.868Z,16.39
2019-03-30T17:57:07.746Z,16.16
2019-03-30T17:59:36.243Z,15.86
2019-03-30T18:04:58.486Z,15.52
2019-03-30T18:07:46.283Z,15.59
2019-03-30T18:15:56.687Z,15.05
2019-03-30T18:21:18.968Z,14.72
2019-03-30T18:23:47.702Z,14.64
2019-03-30T18:26:36.778Z,14.28
2019-03-30T18:29:05.256Z,14.04
2019-03-30T18:32:13.614Z,13.97
2019-03-30T18:41:11.298Z,13.73
2019-03-30T18:43:39.740Z,13.17
2019-03-30T18:46:08.183Z,13.15
2019-03-30T18:48:36.637Z,13.11
2019-03-30T18:51:24.251Z,13.06
2019-03-30T18:54:32.627Z,12.95
2019-03-30T18:57:01.056Z,12.77
2019-03-30T18:59:29.495Z,12.46
2019-03-30T19:04:31.952Z,12.26
2019-03-30T19:07:20.899Z,12.13
2019-03-30T19:09:49.316Z,12.16
2019-03-30T19:12:17.742Z,12.22
2019-03-30T19:14:46.198Z,12.13
2019-03-30T19:17:14.624Z,12.07
2019-03-30T19:19:43.052Z,11.96
2019-03-30T19:22:11.513Z,11.85
2019-03-30T19:24:39.941Z,11.67
2019-03-30T19:27:08.367Z,11.71
2019-03-30T19:29:36.835Z,11.65
2019-03-30T19:32:05.267Z,11.52
2019-03-30T19:34:33.703Z,11.67
2019-03-30T19:37:02.168Z,11.57
2019-03-30T19:39:30.593Z,11.54
2019-03-30T19:41:59.020Z,11.45
2019-03-30T19:44:27.473Z,11.35
2019-03-30T19:46:55.906Z,11.32
2019-03-30T19:49:24.332Z,11.31
2019-03-30T19:54:26.372Z,11.34
2019-03-30T19:56:54.808Z,11.37
2019-03-30T19:59:23.273Z,11.15
2019-03-30T20:01:51.699Z,11.20
2019-03-30T20:07:28.549Z,11.09
2019-03-30T20:09:56.979Z,11.05
2019-03-30T20:12:25.554Z,11.00
2019-03-30T20:14:55.586Z,10.88
2019-03-30T20:17:24.008Z,10.71
2019-03-30T20:20:11.665Z,10.75
2019-03-30T20:22:40.092Z,10.74
2019-03-30T20:25:48.467Z,10.84
2019-03-30T20:28:36.207Z,10.69
2019-03-30T20:31:23.987Z,10.49
2019-03-30T20:33:52.417Z,10.42
2019-03-30T20:36:20.847Z,10.61
2019-03-30T20:38:49.300Z,10.64
2019-03-30T20:41:17.729Z,10.63
2019-03-30T20:43:46.156Z,10.63
2019-03-30T20:46:14.609Z,10.60
2019-03-30T20:48:43.033Z,10.49
2019-03-30T20:51:11.465Z,10.56
2019-03-30T20:56:33.166Z,10.27
2019-03-30T20:59:01.629Z,10.29
2019-03-30T21:01:30.072Z,10.20
2019-03-30T21:03:58.482Z,9.98
2019-03-30T21:06:26.940Z,10.07
2019-03-30T21:08:55.365Z,9.84
2019-03-30T21:11:23.793Z,9.84
2019-03-30T21:13:52.247Z,9.70
2019-03-30T21:16:20.675Z,9.65
2019-03-30T21:18:49.206Z,9.90
2019-03-30T21:23:51.772Z,9.73
2019-03-30T21:26:20.195Z,9.37
2019-03-30T21:28:48.649Z,9.44
2019-03-30T21:31:17.070Z,9.28
2019-03-30T21:33:45.522Z,9.01
2019-03-30T21:36:13.966Z,8.96
2019-03-30T21:38:42.389Z,9.27
2019-03-30T21:41:10.819Z,9.07
2019-03-30T21:43:39.279Z,9.18
2019-03-30T21:46:07.701Z,9.25
2019-03-30T21:48:36.136Z,9.19
2019-03-30T21:51:24.195Z,9.22
2019-03-30T21:53:52.630Z,8.84
2019-03-30T21:56:21.053Z,8.71
2019-03-30T21:58:49.506Z,8.52
2019-03-30T22:01:17.956Z,8.45
2019-03-30T22:03:46.384Z,8.44
2019-03-30T22:06:14.944Z,8.58
2019-03-30T22:09:23.300Z,8.25
2019-03-30T22:14:26.182Z,8.16
2019-03-30T22:16:54.654Z,8.44
2019-03-30T22:19:23.087Z,8.13
2019-03-30T22:21:51.517Z,8.13
2019-03-30T22:24:19.983Z,7.99
2019-03-30T22:26:48.413Z,7.72
2019-03-30T22:29:16.846Z,7.82
2019-03-30T22:31:45.302Z,7.85
2019-03-30T22:34:13.735Z,7.83
2019-03-30T22:39:56.401Z,7.68
2019-03-30T22:42:24.824Z,7.63
2019-03-30T22:44:53.282Z,7.60
2019-03-30T22:47:21.756Z,7.65
2019-03-30T22:49:50.175Z,7.43
2019-03-30T22:52:20.312Z,7.57
2019-03-30T22:57:23.399Z,7.46
2019-03-30T23:00:11.001Z,7.39
2019-03-30T23:08:21.801Z,7.34
2019-03-30T23:13:43.341Z,6.95
2019-03-30T23:16:31.233Z,7.06
2019-03-30T23:18:59.662Z,7.15
2019-03-30T23:21:28.087Z,6.75
2019-03-30T23:26:30.498Z,6.77
2019-03-30T23:28:59.630Z,6.68
2019-03-30T23:31:29.100Z,6.68
2019-03-30T23:33:57.523Z,6.61
2019-03-30T23:36:26.006Z,6.76
2019-03-30T23:38:54.419Z,6.52
2019-03-30T23:41:22.846Z,6.53
2019-03-30T23:43:51.308Z,6.53
2019-03-30T23:46:38.983Z,6.38
2019-03-30T23:49:07.442Z,6.32
2019-03-30T23:51:35.860Z,6.46
2019-03-30T23:56:59.009Z,6.60
2019-03-30T23:59:27.433Z,6.33
